TimeEDT,TemperatureF,Dew PointF,Humidity,Sea Level PressureIn,VisibilityMPH,Wind Direction,Wind SpeedMPH,Gust SpeedMPH,PrecipitationIn,Events,Conditions,WindDirDegrees,DateUTC
12:54 AM,50.0,36.0,59,29.95,10.0,SSW,6.9,-,N/A,,Clear,210,2013-03-16 04:54:00
1:54 AM,51.1,37.9,61,29.93,10.0,SW,6.9,-,N/A,,Clear,220,2013-03-16 05:54:00
2:54 AM,55.0,39.0,55,29.91,10.0,SW,9.2,-,N/A,,Clear,220,2013-03-16 06:54:00
3:54 AM,57.0,39.9,53,29.89,10.0,SW,9.2,-,N/A,,Clear,230,2013-03-16 07:54:00
4:54 AM,57.0,41.0,55,29.88,10.0,WSW,6.9,-,N/A,,Clear,240,2013-03-16 08:54:00
5:54 AM,57.0,41.0,55,29.88,10.0,SW,6.9,-,N/A,,Clear,220,2013-03-16 09:54:00
6:54 AM,57.0,41.0,55,29.88,10.0,SW,6.9,-,N/A,,Clear,230,2013-03-16 10:54:00
7:54 AM,60.1,41.0,49,29.89,10.0,WSW,8.1,-,N/A,,Scattered Clouds,240,2013-03-16 11:54:00
8:54 AM,61.0,42.1,50,29.88,10.0,WSW,9.2,17.3,N/A,,Scattered Clouds,250,2013-03-16 12:54:00
9:54 AM,63.0,43.0,48,29.88,10.0,WSW,10.4,18.4,N/A,,Scattered Clouds,250,2013-03-16 13:54:00
10:54 AM,68.0,44.1,42,29.87,10.0,West,16.1,21.9,N/A,,Partly Cloudy,260,2013-03-16 14:54:00
11:54 AM,72.0,46.0,40,29.84,10.0,WSW,9.2,-,N/A,,Clear,250,2013-03-16 15:54:00
12:54 PM,75.9,46.0,35,29.83,10.0,West,6.9,-,N/A,,Partly Cloudy,270,2013-03-16 16:54:00
1:54 PM,78.1,46.0,32,29.79,10.0,West,12.7,17.3,N/A,,Clear,260,2013-03-16 17:54:00
2:54 PM,79.0,46.0,31,29.75,10.0,West,11.5,-,N/A,,Clear,260,2013-03-16 18:54:00
3:54 PM,81.0,46.0,29,29.73,10.0,WSW,12.7,24.2,N/A,,Clear,250,2013-03-16 19:54:00
4:54 PM,79.0,50.0,36,29.71,10.0,South,13.8,19.6,N/A,,Clear,180,2013-03-16 20:54:00
5:54 PM,73.9,52.0,46,29.71,10.0,South,13.8,-,N/A,,Clear,180,2013-03-16 21:54:00
6:54 PM,69.1,51.1,53,29.71,10.0,South,9.2,-,N/A,,Clear,180,2013-03-16 22:54:00
7:54 PM,68.0,48.0,49,29.74,10.0,SSW,12.7,-,N/A,,Clear,210,2013-03-16 23:54:00
8:54 PM,66.9,48.0,51,29.77,10.0,SW,12.7,-,N/A,,Clear,220,2013-03-17 00:54:00
9:54 PM,64.0,48.0,56,29.81,10.0,SSW,9.2,-,N/A,,Clear,210,2013-03-17 01:54:00
10:54 PM,63.0,48.0,58,29.85,10.0,SW,3.5,-,N/A,,Overcast,230,2013-03-17 02:54:00
11:54 PM,61.0,46.9,60,29.86,10.0,SSW,5.8,-,N/A,,Scattered Clouds,210,2013-03-17 03:54:00